createdAt,value
2023-03-27T00:01:28.415Z,100145.41
2023-03-27T00:03:56.302Z,100143.84
2023-03-27T00:06:25.321Z,100143.84
2023-03-27T00:08:53.414Z,100148.91
2023-03-27T00:11:25.100Z,100137.00
2023-03-27T00:13:55.014Z,100141.53
2023-03-27T00:16:26.952Z,100146.16
2023-03-27T00:19:01.214Z,100140.50
2023-03-27T00:21:31.407Z,100138.94
2023-03-27T00:24:00.574Z,100143.28
2023-03-27T00:26:30.670Z,100148.00
2023-03-27T00:29:02.772Z,100140.31
2023-03-27T00:31:31.852Z,100141.06
2023-03-27T00:33:59.517Z,100142.66
2023-03-27T00:36:27.373Z,100147.34
2023-03-27T00:38:55.016Z,100142.72
2023-03-27T00:41:23.074Z,100148.91
2023-03-27T00:43:56.425Z,100145.69
2023-03-27T00:46:42.442Z,100145.22
2023-03-27T00:49:15.220Z,100145.31
2023-03-27T00:51:49.314Z,100143.94
2023-03-27T00:54:22.237Z,100150.75
2023-03-27T00:56:50.633Z,100153.00
2023-03-27T00:59:22.229Z,100152.72
2023-03-27T01:01:50.875Z,100157.63
2023-03-27T01:04:21.524Z,100161.97
2023-03-27T01:06:52.766Z,100165.00
2023-03-27T01:09:21.166Z,100169.75
2023-03-27T01:12:13.286Z,100172.22
2023-03-27T01:15:18.609Z,100169.66
2023-03-27T01:18:20.948Z,100173.69
2023-03-27T01:21:05.921Z,100166.69
2023-03-27T01:24:08.705Z,100165.66
2023-03-27T01:27:02.971Z,100159.19
2023-03-27T01:29:39.656Z,100165.59
2023-03-27T01:32:42.958Z,100175.75
2023-03-27T01:35:25.832Z,100177.78
2023-03-27T01:38:29.510Z,100181.03
2023-03-27T01:41:15.296Z,100175.72
2023-03-27T01:43:57.467Z,100181.50
2023-03-27T01:46:32.823Z,100183.41
2023-03-27T01:49:07.779Z,100185.69
2023-03-27T01:51:44.058Z,100187.09
2023-03-27T01:54:26.046Z,100189.03
2023-03-27T01:57:04.433Z,100187.56
2023-03-27T01:59:38.474Z,100185.16
2023-03-27T02:02:17.503Z,100184.78
2023-03-27T02:04:52.289Z,100191.53
2023-03-27T02:07:29.787Z,100191.97
2023-03-27T02:10:02.105Z,100194.25
2023-03-27T02:12:43.751Z,100189.97
2023-03-27T02:15:23.470Z,100187.69
2023-03-27T02:18:05.515Z,100182.22
2023-03-27T02:20:35.945Z,100185.53
2023-03-27T02:23:05.317Z,100177.41
2023-03-27T02:25:46.677Z,100184.44
2023-03-27T02:28:46.314Z,100180.56
2023-03-27T02:31:31.701Z,100179.34
2023-03-27T02:34:38.516Z,100177.88
2023-03-27T02:37:23.329Z,100180.38
2023-03-27T02:40:11.710Z,100185.38
2023-03-27T02:43:17.228Z,100186.03
2023-03-27T02:46:12.856Z,100182.41
2023-03-27T02:48:45.719Z,100178.41
2023-03-27T02:51:25.228Z,100184.72
2023-03-27T02:54:10.113Z,100173.34
2023-03-27T02:56:44.830Z,100181.50
2023-03-27T02:59:22.610Z,100186.69
2023-03-27T03:01:50.562Z,100182.41
2023-03-27T03:04:20.536Z,100183.41
2023-03-27T03:06:50.483Z,100174.47
2023-03-27T03:09:19.229Z,100180.09
2023-03-27T03:11:50.548Z,100188.59
2023-03-27T03:14:31.668Z,100192.28
2023-03-27T03:16:59.590Z,100190.78
2023-03-27T03:19:32.683Z,100188.94
2023-03-27T03:22:01.126Z,100202.00
2023-03-27T03:24:29.851Z,100203.66
2023-03-27T03:26:57.906Z,100206.34
2023-03-27T03:29:30.063Z,100204.84
2023-03-27T03:31:57.971Z,100204.84
2023-03-27T03:34:27.970Z,100196.16
2023-03-27T03:36:55.597Z,100196.50
2023-03-27T03:39:25.014Z,100196.72
2023-03-27T03:41:52.599Z,100200.47
2023-03-27T03:44:20.159Z,100199.00
2023-03-27T03:46:47.774Z,100196.44
2023-03-27T03:49:15.452Z,100203.53
2023-03-27T03:51:46.126Z,100210.69
2023-03-27T03:54:13.881Z,100211.13
2023-03-27T03:56:41.879Z,100217.50
2023-03-27T03:59:11.932Z,100221.88
2023-03-27T04:01:40.992Z,100223.81
2023-03-27T04:04:09.341Z,100218.44
2023-03-27T04:06:38.019Z,100226.22
2023-03-27T04:09:06.493Z,100215.72
2023-03-27T04:11:35.253Z,100215.69
2023-03-27T04:14:02.959Z,100213.22
2023-03-27T04:16:30.534Z,100226.56
2023-03-27T04:18:58.515Z,100227.88
2023-03-27T04:21:26.657Z,100237.84
2023-03-27T04:24:02.537Z,100231.44
2023-03-27T04:26:30.497Z,100241.66
2023-03-27T04:28:57.871Z,100241.88
2023-03-27T04:31:26.334Z,100248.06
2023-03-27T04:33:54.054Z,100254.75
2023-03-27T04:36:21.577Z,100251.34
2023-03-27T04:38:49.919Z,100260.69
2023-03-27T04:41:22.297Z,100268.50
2023-03-27T04:43:50.042Z,100265.16
2023-03-27T04:46:18.104Z,100266.69
2023-03-27T04:48:45.649Z,100260.47
2023-03-27T04:51:12.983Z,100260.75
2023-03-27T04:53:43.051Z,100257.91
2023-03-27T04:56:11.274Z,100261.84
2023-03-27T04:58:41.474Z,100272.38
2023-03-27T05:01:10.085Z,100280.44
2023-03-27T05:03:39.171Z,100287.13
2023-03-27T05:06:08.461Z,100287.56
2023-03-27T05:08:36.201Z,100293.59
2023-03-27T05:11:04.816Z,100301.34
2023-03-27T05:13:34.038Z,100306.63
2023-03-27T05:16:02.102Z,100312.66
2023-03-27T05:18:30.951Z,100315.38
2023-03-27T05:21:06.108Z,100312.88
2023-03-27T05:23:34.294Z,100317.00
2023-03-27T05:26:01.655Z,100322.59
2023-03-27T05:28:31.377Z,100323.19
2023-03-27T05:30:59.372Z,100316.28
2023-03-27T05:33:27.227Z,100313.94
2023-03-27T05:35:54.837Z,100321.97
2023-03-27T05:38:22.944Z,100310.66
2023-03-27T05:40:58.239Z,100310.66
2023-03-27T05:43:26.471Z,100308.44
2023-03-27T05:45:53.942Z,100318.84
2023-03-27T05:48:21.754Z,100328.59
2023-03-27T05:50:49.189Z,100323.88
2023-03-27T05:53:17.464Z,100330.56
2023-03-27T05:55:45.961Z,100338.44
2023-03-27T05:58:19.926Z,100347.81
2023-03-27T06:00:48.055Z,100354.97
2023-03-27T06:03:16.405Z,100361.34
2023-03-27T06:05:44.160Z,100353.09
2023-03-27T06:08:11.842Z,100361.50
2023-03-27T06:10:43.752Z,100360.75
2023-03-27T06:13:16.191Z,100369.16
2023-03-27T06:15:44.634Z,100374.50
2023-03-27T06:18:12.373Z,100375.72
2023-03-27T06:20:42.827Z,100375.78
2023-03-27T06:23:10.815Z,100380.03
2023-03-27T06:25:39.461Z,100384.84
2023-03-27T06:28:11.043Z,100388.69
2023-03-27T06:30:39.004Z,100397.91
2023-03-27T06:33:08.022Z,100404.75
2023-03-27T06:35:37.168Z,100401.34
2023-03-27T06:38:05.232Z,100397.66
2023-03-27T06:40:35.545Z,100402.63
2023-03-27T06:43:06.370Z,100406.13
2023-03-27T06:45:46.192Z,100414.59
2023-03-27T06:48:21.266Z,100415.25
2023-03-27T06:50:52.559Z,100427.97
2023-03-27T06:55:52.658Z,100428.41
2023-03-27T06:58:20.879Z,100435.44
2023-03-27T07:00:49.845Z,100443.97
2023-03-27T07:03:19.993Z,100448.84
2023-03-27T07:05:49.213Z,100448.44
2023-03-27T07:08:24.529Z,100455.25
2023-03-27T07:13:25.740Z,100460.03
2023-03-27T07:15:53.234Z,100451.41
2023-03-27T07:18:22.696Z,100449.72
2023-03-27T07:20:50.542Z,100459.00
2023-03-27T07:23:18.139Z,100460.91
2023-03-27T07:25:45.911Z,100455.09
2023-03-27T07:28:16.730Z,100454.78
2023-03-27T07:30:44.184Z,100455.41
2023-03-27T07:33:12.682Z,100454.38
2023-03-27T07:35:45.872Z,100457.56
2023-03-27T07:38:14.494Z,100449.88
2023-03-27T07:40:46.958Z,100460.19
2023-03-27T07:43:14.598Z,100449.44
2023-03-27T07:45:42.850Z,100455.75
2023-03-27T07:48:16.256Z,100451.78
2023-03-27T07:50:45.325Z,100440.25
2023-03-27T07:53:33.713Z,100440.72
2023-03-27T07:56:00.679Z,100442.81
2023-03-27T07:58:29.119Z,100442.09
2023-03-27T08:01:02.450Z,100446.53
2023-03-27T08:03:31.332Z,100450.91
2023-03-27T08:06:01.118Z,100457.66
2023-03-27T08:08:28.827Z,100456.56
2023-03-27T08:10:57.158Z,100450.28
2023-03-27T08:13:29.737Z,100456.22
2023-03-27T08:16:14.978Z,100454.00
2023-03-27T08:18:42.989Z,100454.88
2023-03-27T08:21:11.848Z,100455.94
2023-03-27T08:23:41.055Z,100453.06
2023-03-27T08:26:09.512Z,100468.00
2023-03-27T08:28:37.705Z,100455.16
2023-03-27T08:31:11.796Z,100458.50
2023-03-27T08:33:39.891Z,100452.66
2023-03-27T08:36:10.278Z,100456.59
2023-03-27T08:38:39.632Z,100455.66
2023-03-27T08:41:28.709Z,100458.63
2023-03-27T08:44:01.445Z,100456.34
2023-03-27T08:46:38.360Z,100465.31
2023-03-27T08:49:15.183Z,100457.91
2023-03-27T08:51:53.997Z,100451.97
2023-03-27T08:54:31.920Z,100457.28
2023-03-27T08:57:00.237Z,100446.34
2023-03-27T08:59:31.548Z,100444.25
2023-03-27T09:02:26.970Z,100450.09
2023-03-27T09:05:28.637Z,100453.25
2023-03-27T09:07:59.258Z,100440.06
2023-03-27T09:10:59.996Z,100445.19
2023-03-27T09:13:38.292Z,100450.09
2023-03-27T09:16:21.681Z,100451.84
2023-03-27T09:19:07.985Z,100455.09
2023-03-27T09:21:38.471Z,100460.63
2023-03-27T09:24:17.858Z,100462.97
2023-03-27T09:26:47.592Z,100465.22
2023-03-27T09:29:24.789Z,100470.59
2023-03-27T09:31:56.410Z,100462.50
2023-03-27T09:34:30.620Z,100460.47
2023-03-27T09:36:59.824Z,100464.28
2023-03-27T09:39:34.243Z,100466.59
2023-03-27T09:42:17.361Z,100452.22
2023-03-27T09:44:50.603Z,100453.16
2023-03-27T09:47:36.519Z,100453.97
2023-03-27T09:50:13.122Z,100448.75
2023-03-27T09:52:41.952Z,100453.38
2023-03-27T09:55:27.048Z,100450.94
2023-03-27T09:58:06.391Z,100445.88
2023-03-27T10:00:35.108Z,100445.31
2023-03-27T10:03:08.286Z,100446.75
2023-03-27T10:05:36.530Z,100446.28
2023-03-27T10:08:30.660Z,100438.16
2023-03-27T10:10:59.332Z,100445.16
2023-03-27T10:13:30.106Z,100448.03
2023-03-27T10:16:05.331Z,100446.22
2023-03-27T10:18:42.305Z,100445.16
2023-03-27T10:21:18.832Z,100441.41
2023-03-27T10:23:49.789Z,100447.84
2023-03-27T10:26:21.175Z,100448.34
2023-03-27T10:28:51.788Z,100447.41
2023-03-27T10:31:30.145Z,100445.91
2023-03-27T10:34:02.565Z,100443.88
2023-03-27T10:36:38.083Z,100436.88
2023-03-27T10:39:12.966Z,100443.28
2023-03-27T10:41:40.900Z,100446.66
2023-03-27T10:44:18.595Z,100448.75
2023-03-27T10:46:46.874Z,100446.56
2023-03-27T10:49:42.711Z,100448.00
2023-03-27T10:52:28.115Z,100441.38
2023-03-27T10:55:29.066Z,100445.56
2023-03-27T10:58:05.352Z,100440.72
2023-03-27T11:00:41.602Z,100440.22
2023-03-27T11:03:45.228Z,100445.16
2023-03-27T11:06:16.902Z,100445.59
2023-03-27T11:09:05.270Z,100448.78
2023-03-27T11:11:41.262Z,100441.25
2023-03-27T11:14:19.902Z,100445.94
2023-03-27T11:16:57.421Z,100449.47
2023-03-27T11:19:31.178Z,100448.66
2023-03-27T11:22:10.794Z,100450.72
2023-03-27T11:24:47.799Z,100447.72
2023-03-27T11:27:23.442Z,100447.06
2023-03-27T11:30:25.703Z,100453.75
2023-03-27T11:33:15.459Z,100458.25
2023-03-27T11:35:52.683Z,100455.00
2023-03-27T11:38:28.897Z,100456.22
2023-03-27T11:40:56.854Z,100465.31
2023-03-27T11:43:24.896Z,100459.88
2023-03-27T11:46:15.193Z,100457.88
2023-03-27T11:49:27.559Z,100461.53
2023-03-27T11:52:33.460Z,100456.22
2023-03-27T11:55:23.975Z,100458.84
2023-03-27T11:58:04.382Z,100457.41
2023-03-27T12:00:45.161Z,100457.16
2023-03-27T12:03:23.647Z,100454.75
2023-03-27T12:06:16.824Z,100461.84
2023-03-27T12:09:23.481Z,100466.34
2023-03-27T12:12:29.922Z,100473.34
2023-03-27T12:15:15.106Z,100465.06
2023-03-27T12:18:23.931Z,100467.06
2023-03-27T12:21:18.770Z,100463.56
2023-03-27T12:23:57.259Z,100471.50
2023-03-27T12:27:03.154Z,100463.47
2023-03-27T12:29:58.422Z,100467.31
2023-03-27T12:32:33.828Z,100469.72
2023-03-27T12:35:09.855Z,100469.31
2023-03-27T12:37:43.045Z,100459.94
2023-03-27T12:40:33.009Z,100459.28
2023-03-27T12:43:21.705Z,100458.34
2023-03-27T12:46:24.757Z,100443.56
2023-03-27T12:48:58.285Z,100448.66
2023-03-27T12:51:43.892Z,100455.06
2023-03-27T12:54:14.329Z,100445.88
2023-03-27T12:56:42.392Z,100454.16
2023-03-27T12:59:29.533Z,100446.00
2023-03-27T13:02:08.868Z,100458.19
2023-03-27T13:05:26.346Z,100450.00
2023-03-27T13:08:35.179Z,100453.47
2023-03-27T13:11:28.710Z,100453.50
2023-03-27T13:17:07.658Z,100448.63
2023-03-27T13:19:59.733Z,100436.34
2023-03-27T13:23:03.251Z,100438.97
2023-03-27T13:25:50.582Z,100434.69
2023-03-27T13:28:35.609Z,100431.91
2023-03-27T13:31:05.966Z,100437.03
2023-03-27T13:33:35.896Z,100435.94
2023-03-27T13:36:14.498Z,100443.63
2023-03-27T13:38:54.320Z,100451.16
2023-03-27T13:41:40.978Z,100441.78
2023-03-27T13:44:11.362Z,100447.50
2023-03-27T13:46:48.132Z,100440.53
2023-03-27T13:49:35.584Z,100449.00
2023-03-27T13:52:27.794Z,100440.84
2023-03-27T13:55:24.815Z,100439.84
2023-03-27T13:58:08.769Z,100438.56
2023-03-27T14:00:43.883Z,100435.13
2023-03-27T14:03:49.139Z,100442.53
2023-03-27T14:06:53.573Z,100444.22
2023-03-27T14:09:25.557Z,100439.03
2023-03-27T14:12:17.000Z,100441.50
2023-03-27T14:15:09.898Z,100432.25
2023-03-27T14:18:03.857Z,100440.47
2023-03-27T14:20:39.865Z,100432.69
2023-03-27T14:23:14.238Z,100430.13
2023-03-27T14:25:49.440Z,100436.09
2023-03-27T14:28:55.668Z,100430.41
2023-03-27T14:31:24.754Z,100438.88
2023-03-27T14:34:04.737Z,100436.59
2023-03-27T14:36:42.052Z,100430.03
2023-03-27T14:39:27.990Z,100425.41
2023-03-27T14:41:58.924Z,100430.88
2023-03-27T14:44:31.497Z,100432.97
2023-03-27T14:47:15.424Z,100435.47
2023-03-27T14:49:46.963Z,100434.06
2023-03-27T14:52:25.100Z,100423.38
2023-03-27T14:54:55.675Z,100424.69
2023-03-27T14:57:25.957Z,100418.19
2023-03-27T14:59:55.405Z,100413.09
2023-03-27T15:02:31.978Z,100405.63
2023-03-27T15:05:14.757Z,100408.75
2023-03-27T15:07:44.053Z,100409.66
2023-03-27T15:10:31.708Z,100419.69
2023-03-27T15:12:59.420Z,100418.53
2023-03-27T15:15:44.421Z,100416.22
2023-03-27T15:18:36.275Z,100423.75
2023-03-27T15:21:14.497Z,100414.63
2023-03-27T15:24:24.363Z,100415.28
2023-03-27T15:26:53.243Z,100412.94
2023-03-27T15:29:28.929Z,100415.28
2023-03-27T15:31:59.784Z,100411.50
2023-03-27T15:34:46.167Z,100415.28
2023-03-27T15:37:24.130Z,100427.66
2023-03-27T15:40:22.616Z,100422.44
2023-03-27T15:43:00.615Z,100426.38
2023-03-27T15:45:56.129Z,100425.00
2023-03-27T15:48:38.119Z,100424.66
2023-03-27T15:51:15.759Z,100426.41
2023-03-27T15:53:46.115Z,100427.78
2023-03-27T15:56:13.473Z,100423.00
2023-03-27T15:58:48.450Z,100424.97
2023-03-27T16:01:23.482Z,100420.81
2023-03-27T16:03:52.575Z,100417.69
2023-03-27T16:06:30.928Z,100428.13
2023-03-27T16:08:59.150Z,100426.69
2023-03-27T16:11:43.602Z,100425.25
2023-03-27T16:14:26.486Z,100425.03
2023-03-27T16:17:12.159Z,100441.41
2023-03-27T16:19:44.698Z,100441.41
2023-03-27T16:22:13.320Z,100446.19
2023-03-27T16:24:40.729Z,100453.88
2023-03-27T16:27:10.417Z,100452.03
2023-03-27T16:29:38.361Z,100443.91
2023-03-27T16:32:06.032Z,100444.72
2023-03-27T16:34:33.543Z,100444.53
2023-03-27T16:37:00.961Z,100446.97
2023-03-27T16:39:33.753Z,100449.69
2023-03-27T16:42:01.372Z,100447.19
2023-03-27T16:44:29.136Z,100444.66
2023-03-27T16:46:56.563Z,100451.69
2023-03-27T16:49:23.982Z,100457.31
2023-03-27T16:51:51.916Z,100454.19
2023-03-27T16:54:19.456Z,100456.47
2023-03-27T16:56:50.913Z,100448.31
2023-03-27T16:59:19.755Z,100457.44
2023-03-27T17:01:47.408Z,100458.44
2023-03-27T17:04:15.429Z,100454.50
2023-03-27T17:06:43.624Z,100462.75
2023-03-27T17:09:12.659Z,100470.25
2023-03-27T17:11:41.901Z,100470.19
2023-03-27T17:14:09.927Z,100460.03
2023-03-27T17:16:38.511Z,100466.03
2023-03-27T17:19:06.167Z,100464.94
2023-03-27T17:21:33.650Z,100461.41
2023-03-27T17:24:02.362Z,100463.22
2023-03-27T17:26:34.422Z,100463.09
2023-03-27T17:29:06.903Z,100459.34
2023-03-27T17:31:35.945Z,100465.53
2023-03-27T17:34:03.485Z,100466.56
2023-03-27T17:36:41.098Z,100463.03
2023-03-27T17:39:10.496Z,100458.47
2023-03-27T17:41:38.014Z,100452.19
2023-03-27T17:44:07.510Z,100457.19
2023-03-27T17:46:36.449Z,100454.63
2023-03-27T17:49:03.999Z,100455.50
2023-03-27T17:51:31.535Z,100448.84
2023-03-27T17:54:05.237Z,100445.94
2023-03-27T17:56:32.985Z,100441.31
2023-03-27T17:59:00.443Z,100438.03
2023-03-27T18:01:32.770Z,100439.66
2023-03-27T18:04:00.689Z,100431.81
2023-03-27T18:06:28.377Z,100434.09
2023-03-27T18:08:56.051Z,100419.78
2023-03-27T18:11:23.869Z,100427.22
2023-03-27T18:13:53.443Z,100419.19
2023-03-27T18:16:23.158Z,100425.59
2023-03-27T18:18:52.454Z,100423.72
2023-03-27T18:21:20.068Z,100427.22
2023-03-27T18:23:47.907Z,100428.69
2023-03-27T18:26:16.682Z,100421.88
2023-03-27T18:28:44.164Z,100421.06
2023-03-27T18:31:12.819Z,100417.53
2023-03-27T18:33:40.539Z,100417.13
2023-03-27T18:36:10.761Z,100423.16
2023-03-27T18:38:41.938Z,100415.22
2023-03-27T18:41:11.242Z,100414.25
2023-03-27T18:43:46.909Z,100402.56
2023-03-27T18:46:17.141Z,100414.38
2023-03-27T18:48:46.484Z,100404.38
2023-03-27T18:51:15.118Z,100409.38
2023-03-27T18:53:43.336Z,100406.69
2023-03-27T18:56:13.626Z,100407.38
2023-03-27T18:58:43.240Z,100408.09
2023-03-27T19:01:11.063Z,100414.75
2023-03-27T19:03:39.712Z,100409.66
2023-03-27T19:06:09.803Z,100425.75
2023-03-27T19:08:38.529Z,100422.94
2023-03-27T19:11:13.061Z,100430.00
2023-03-27T19:13:41.388Z,100422.47
2023-03-27T19:16:14.903Z,100420.38
2023-03-27T19:18:42.852Z,100414.59
2023-03-27T19:21:10.344Z,100423.59
2023-03-27T19:23:37.765Z,100409.88
2023-03-27T19:26:11.150Z,100414.91
2023-03-27T19:28:40.381Z,100408.09
2023-03-27T19:31:10.460Z,100406.75
2023-03-27T19:33:39.025Z,100412.03
2023-03-27T19:36:07.034Z,100402.63
2023-03-27T19:38:34.943Z,100409.59
2023-03-27T19:41:02.405Z,100412.28
2023-03-27T19:43:30.114Z,100403.34
2023-03-27T19:46:14.225Z,100396.81
2023-03-27T19:48:50.040Z,100396.88
2023-03-27T19:51:17.569Z,100398.34
2023-03-27T19:53:44.968Z,100405.34
2023-03-27T19:56:12.726Z,100399.13
2023-03-27T19:58:40.385Z,100400.34
2023-03-27T20:01:07.972Z,100396.91
2023-03-27T20:03:38.524Z,100402.72
2023-03-27T20:06:13.225Z,100407.50
2023-03-27T20:08:45.231Z,100407.63
2023-03-27T20:11:13.164Z,100405.44
2023-03-27T20:13:52.929Z,100400.63
2023-03-27T20:16:26.560Z,100407.88
2023-03-27T20:19:03.480Z,100395.19
2023-03-27T20:21:36.303Z,100395.47
2023-03-27T20:24:05.846Z,100397.88
2023-03-27T20:26:39.070Z,100398.56
2023-03-27T20:29:12.370Z,100387.63
2023-03-27T20:31:41.038Z,100386.88
2023-03-27T20:34:09.602Z,100382.34
2023-03-27T20:36:39.660Z,100386.06
2023-03-27T20:39:08.363Z,100392.03
2023-03-27T20:41:39.738Z,100393.06
2023-03-27T20:44:35.027Z,100390.03
2023-03-27T20:47:12.276Z,100391.53
2023-03-27T20:49:45.253Z,100385.50
2023-03-27T20:52:15.540Z,100384.13
2023-03-27T20:54:43.388Z,100382.66
2023-03-27T20:57:12.074Z,100386.00
2023-03-27T20:59:39.657Z,100383.88
2023-03-27T21:02:07.449Z,100385.53
2023-03-27T21:04:34.984Z,100381.41
2023-03-27T21:07:02.724Z,100372.59
2023-03-27T21:09:31.892Z,100377.06
2023-03-27T21:12:01.465Z,100363.06
2023-03-27T21:14:28.993Z,100364.81
2023-03-27T21:16:56.603Z,100356.94
2023-03-27T21:19:24.210Z,100356.13
2023-03-27T21:21:52.487Z,100346.75
2023-03-27T21:24:20.896Z,100349.00
2023-03-27T21:26:48.377Z,100334.47
2023-03-27T21:29:18.436Z,100328.28
2023-03-27T21:31:46.216Z,100320.41
2023-03-27T21:34:13.690Z,100322.16
2023-03-27T21:36:41.742Z,100321.53
2023-03-27T21:39:09.219Z,100317.25
2023-03-27T21:41:37.411Z,100311.97
2023-03-27T21:44:05.131Z,100308.72
2023-03-27T21:46:32.837Z,100304.56
2023-03-27T21:49:00.768Z,100311.59
2023-03-27T21:51:28.165Z,100314.91
2023-03-27T21:53:55.800Z,100309.25
2023-03-27T21:56:23.227Z,100315.69
2023-03-27T21:58:50.891Z,100306.81
2023-03-27T22:01:18.926Z,100309.88
2023-03-27T22:03:47.564Z,100317.56
2023-03-27T22:06:15.533Z,100310.63
2023-03-27T22:08:43.705Z,100315.44
2023-03-27T22:11:12.661Z,100324.25
2023-03-27T22:13:43.429Z,100315.38
2023-03-27T22:16:14.862Z,100315.66
2023-03-27T22:18:43.764Z,100303.13
2023-03-27T22:21:17.657Z,100310.47
2023-03-27T22:23:45.755Z,100307.91
2023-03-27T22:26:13.952Z,100304.81
2023-03-27T22:28:42.583Z,100313.66
2023-03-27T22:31:10.139Z,100323.81
2023-03-27T22:33:37.865Z,100309.75
2023-03-27T22:36:09.226Z,100306.63
2023-03-27T22:38:37.644Z,100298.19
2023-03-27T22:41:07.478Z,100282.94
2023-03-27T22:43:35.036Z,100294.59
2023-03-27T22:46:16.539Z,100298.94
2023-03-27T22:48:44.686Z,100298.94
2023-03-27T22:51:13.456Z,100280.16
2023-03-27T22:53:44.989Z,100290.59
2023-03-27T22:56:12.346Z,100288.81
2023-03-27T22:58:39.746Z,100281.81
2023-03-27T23:01:07.773Z,100280.44
2023-03-27T23:03:37.539Z,100283.94
2023-03-27T23:06:06.055Z,100277.56
2023-03-27T23:08:36.776Z,100286.50
2023-03-27T23:11:05.924Z,100271.97
2023-03-27T23:13:34.932Z,100267.38
2023-03-27T23:16:03.257Z,100263.50
2023-03-27T23:18:30.798Z,100258.97
2023-03-27T23:21:03.738Z,100250.53
2023-03-27T23:23:32.868Z,100254.47
2023-03-27T23:26:00.694Z,100252.75
2023-03-27T23:28:33.101Z,100242.44
2023-03-27T23:31:03.163Z,100239.56
2023-03-27T23:33:38.317Z,100242.00
2023-03-27T23:36:21.070Z,100238.88
2023-03-27T23:38:49.980Z,100232.75
2023-03-27T23:41:18.390Z,100227.53
2023-03-27T23:43:46.211Z,100224.78
2023-03-27T23:46:14.150Z,100220.09
2023-03-27T23:48:43.146Z,100223.31
2023-03-27T23:51:13.350Z,100211.84
2023-03-27T23:53:44.803Z,100211.47
2023-03-27T23:56:12.255Z,100204.00
2023-03-27T23:58:39.860Z,100195.63
